createdAt,value
2018-12-26T00:01:49.219Z,0.00
2018-12-26T00:04:19.030Z,-0.20
2018-12-26T00:06:48.734Z,-0.40
2018-12-26T00:09:18.795Z,-0.40
2018-12-26T00:11:48.537Z,-0.40
2018-12-26T00:14:18.685Z,-0.70
2018-12-26T00:16:48.491Z,-0.50
2018-12-26T00:19:18.476Z,-0.80
2018-12-26T00:21:48.433Z,-0.80
2018-12-26T00:24:18.307Z,-0.80
2018-12-26T00:26:48.128Z,-0.80
2018-12-26T00:29:17.930Z,-0.90
2018-12-26T00:31:47.627Z,-1.10
2018-12-26T00:34:17.531Z,-0.90
2018-12-26T00:36:47.506Z,-0.80
2018-12-26T00:39:17.298Z,-0.60
2018-12-26T00:41:47.091Z,-0.40
2018-12-26T00:44:16.816Z,-0.50
2018-12-26T00:46:46.530Z,-0.50
2018-12-26T00:49:16.233Z,-0.60
2018-12-26T00:51:46.437Z,-0.60
2018-12-26T00:54:16.145Z,-0.70
2018-12-26T00:56:45.862Z,-0.60
2018-12-26T00:59:16.044Z,-0.50
2018-12-26T01:01:45.883Z,-0.30
2018-12-26T01:04:16.168Z,-0.20
2018-12-26T01:06:46.050Z,-0.30
2018-12-26T01:09:15.993Z,-0.30
2018-12-26T01:11:45.810Z,-0.30
2018-12-26T01:14:15.542Z,-0.30
2018-12-26T01:16:45.292Z,-0.20
2018-12-26T01:19:15.133Z,-0.20
2018-12-26T01:21:45.092Z,-0.30
2018-12-26T01:24:15.126Z,-0.20
2018-12-26T01:26:45.088Z,-0.20
2018-12-26T01:29:14.827Z,-0.40
2018-12-26T01:31:44.623Z,-0.40
2018-12-26T01:34:14.354Z,-0.60
2018-12-26T01:36:44.066Z,-0.70
2018-12-26T01:39:13.884Z,-0.70
2018-12-26T01:41:43.674Z,-0.70
2018-12-26T01:44:13.531Z,-0.60
2018-12-26T01:46:43.487Z,-0.50
2018-12-26T01:49:13.196Z,-0.40
2018-12-26T01:51:43.504Z,-0.40
2018-12-26T01:54:13.526Z,-0.30
2018-12-26T01:56:43.310Z,-0.30
2018-12-26T01:59:13.368Z,-0.30
2018-12-26T02:01:43.090Z,-0.30
2018-12-26T02:04:12.949Z,-0.40
2018-12-26T02:06:42.755Z,-0.40
2018-12-26T02:09:13.883Z,-0.70
2018-12-26T02:11:44.044Z,-0.70
2018-12-26T02:14:14.100Z,-0.80
2018-12-26T02:16:43.863Z,-0.90
2018-12-26T02:19:14.149Z,-0.90
2018-12-26T02:21:44.279Z,-0.90
2018-12-26T02:24:14.408Z,-0.80
2018-12-26T02:26:45.479Z,-0.70
2018-12-26T02:29:15.203Z,-0.70
2018-12-26T02:31:44.993Z,-0.70
2018-12-26T02:34:15.009Z,-0.70
2018-12-26T02:36:45.137Z,-0.90
2018-12-26T02:39:14.864Z,-0.90
2018-12-26T02:41:44.870Z,-1.00
2018-12-26T02:44:14.678Z,-0.90
2018-12-26T02:46:44.695Z,-0.90
2018-12-26T02:49:14.490Z,-0.80
2018-12-26T02:55:13.815Z,-0.80
2018-12-26T02:57:43.514Z,-0.80
2018-12-26T03:00:13.762Z,-0.70
2018-12-26T03:02:43.483Z,-0.60
2018-12-26T03:05:13.219Z,-0.60
2018-12-26T03:07:42.927Z,-0.60
2018-12-26T03:10:12.734Z,-0.60
2018-12-26T03:12:42.711Z,-0.60
2018-12-26T03:15:13.027Z,-0.50
2018-12-26T03:17:43.086Z,-0.70
2018-12-26T03:20:12.868Z,-0.70
2018-12-26T03:22:42.707Z,-0.60
2018-12-26T03:25:12.498Z,-0.60
2018-12-26T03:27:42.480Z,-0.50
2018-12-26T03:30:12.196Z,-0.50
2018-12-26T03:32:41.915Z,-0.50
2018-12-26T03:35:11.791Z,-0.60
2018-12-26T03:37:41.791Z,-0.60
2018-12-26T03:40:11.938Z,-0.70
2018-12-26T03:42:42.278Z,-0.70
2018-12-26T03:45:12.486Z,-0.80
2018-12-26T03:47:42.831Z,-0.80
2018-12-26T03:50:12.845Z,-0.80
2018-12-26T03:52:42.781Z,-0.80
2018-12-26T03:55:12.878Z,-0.80
2018-12-26T03:57:42.675Z,-0.80
2018-12-26T04:00:12.712Z,-0.90
2018-12-26T04:02:42.772Z,-0.80
2018-12-26T04:05:12.889Z,-0.80
2018-12-26T04:07:42.696Z,-1.00
2018-12-26T04:10:15.969Z,-1.10
2018-12-26T04:12:46.114Z,-1.20
2018-12-26T04:15:16.337Z,-1.10
2018-12-26T04:17:46.140Z,-1.10
2018-12-26T04:20:16.011Z,-1.00
2018-12-26T04:22:46.076Z,-1.00
2018-12-26T04:25:16.121Z,-1.10
2018-12-26T04:27:46.022Z,-1.10
2018-12-26T04:30:16.066Z,-1.10
2018-12-26T04:32:45.853Z,-1.00
2018-12-26T04:35:15.675Z,-1.00
2018-12-26T04:37:45.410Z,-1.00
2018-12-26T04:40:15.123Z,-0.90
2018-12-26T04:42:45.649Z,-0.90
2018-12-26T04:45:15.374Z,-1.00
2018-12-26T04:47:45.131Z,-1.10
2018-12-26T04:50:14.840Z,-1.10
2018-12-26T04:52:44.663Z,-1.10
2018-12-26T04:55:14.373Z,-1.10
2018-12-26T04:57:44.589Z,-1.20
2018-12-26T05:00:14.298Z,-1.40
2018-12-26T05:02:44.266Z,-1.30
2018-12-26T05:05:14.313Z,-1.40
2018-12-26T05:07:44.366Z,-1.60
2018-12-26T05:10:14.165Z,-1.60
2018-12-26T05:12:43.957Z,-1.50
2018-12-26T05:15:13.909Z,-1.40
2018-12-26T05:17:44.023Z,-1.40
2018-12-26T05:20:13.814Z,-1.40
2018-12-26T05:22:43.859Z,-1.30
2018-12-26T05:25:13.665Z,-1.30
2018-12-26T05:27:43.389Z,-1.30
2018-12-26T05:30:13.178Z,-1.40
2018-12-26T05:32:42.878Z,-1.50
2018-12-26T05:35:12.777Z,-1.50
2018-12-26T05:37:42.511Z,-1.60
2018-12-26T05:40:12.290Z,-1.70
2018-12-26T05:42:42.169Z,-1.70
2018-12-26T05:45:12.142Z,-1.60
2018-12-26T05:47:41.887Z,-1.50
2018-12-26T05:50:11.582Z,-1.40
2018-12-26T05:52:41.305Z,-1.40
2018-12-26T05:55:11.028Z,-1.40
2018-12-26T05:57:42.943Z,-1.50
2018-12-26T06:00:12.673Z,-1.50
2018-12-26T06:02:42.643Z,-1.50
2018-12-26T06:05:12.378Z,-1.60
2018-12-26T06:07:42.345Z,-1.50
2018-12-26T06:10:12.137Z,-1.60
2018-12-26T06:12:41.911Z,-1.70
2018-12-26T06:15:12.055Z,-1.70
2018-12-26T06:17:42.307Z,-1.70
2018-12-26T06:20:12.031Z,-1.70
2018-12-26T06:22:41.837Z,-1.80
2018-12-26T06:25:11.616Z,-1.80
2018-12-26T06:27:41.569Z,-1.80
2018-12-26T06:30:11.306Z,-1.80
2018-12-26T06:32:41.258Z,-1.80
2018-12-26T06:35:11.218Z,-1.80
2018-12-26T06:37:40.942Z,-1.90
2018-12-26T06:40:10.987Z,-1.90
2018-12-26T06:42:40.795Z,-1.90
2018-12-26T06:45:10.545Z,-1.90
2018-12-26T06:47:40.236Z,-2.00
2018-12-26T06:50:10.034Z,-2.00
2018-12-26T06:52:40.005Z,-1.90
2018-12-26T06:55:10.000Z,-1.90
2018-12-26T06:57:40.190Z,-1.90
2018-12-26T07:00:10.250Z,-2.00
2018-12-26T07:02:39.965Z,-2.00
2018-12-26T07:05:09.930Z,-2.00
2018-12-26T07:07:39.966Z,-2.00
2018-12-26T07:10:09.838Z,-2.00
2018-12-26T07:12:39.541Z,-2.00
2018-12-26T07:15:09.387Z,-2.10
2018-12-26T07:17:39.196Z,-2.10
2018-12-26T07:20:09.049Z,-2.10
2018-12-26T07:22:38.821Z,-2.10
2018-12-26T07:25:08.634Z,-2.20
2018-12-26T07:27:38.878Z,-2.20
2018-12-26T07:30:08.690Z,-2.20
2018-12-26T07:32:38.666Z,-2.30
2018-12-26T07:35:08.676Z,-2.30
2018-12-26T07:37:38.410Z,-2.30
2018-12-26T07:40:09.250Z,-2.40
2018-12-26T07:42:38.962Z,-2.30
2018-12-26T07:45:09.497Z,-2.20
2018-12-26T07:47:39.456Z,-2.20
2018-12-26T07:50:09.291Z,-2.30
2018-12-26T07:52:39.110Z,-2.40
2018-12-26T07:55:09.026Z,-2.50
2018-12-26T07:57:38.963Z,-2.50
2018-12-26T08:00:09.322Z,-2.50
2018-12-26T08:02:39.116Z,-2.50
2018-12-26T08:05:09.553Z,-2.30
2018-12-26T08:07:39.626Z,-2.20
2018-12-26T08:10:12.843Z,-2.20
2018-12-26T08:12:42.823Z,-2.10
2018-12-26T08:15:12.835Z,-2.00
2018-12-26T08:17:42.576Z,-2.00
2018-12-26T08:20:12.667Z,-2.00
2018-12-26T08:22:42.701Z,-2.10
2018-12-26T08:25:12.846Z,-2.10
2018-12-26T08:27:42.828Z,-2.30
2018-12-26T08:30:13.058Z,-2.30
2018-12-26T08:32:43.694Z,-2.30
2018-12-26T08:35:13.823Z,-2.20
2018-12-26T08:37:43.811Z,-2.10
2018-12-26T08:40:13.730Z,-2.00
2018-12-26T08:42:43.798Z,-1.90
2018-12-26T08:45:13.842Z,-1.90
2018-12-26T08:47:43.827Z,-1.80
2018-12-26T08:50:13.644Z,-1.90
2018-12-26T08:52:43.403Z,-1.80
2018-12-26T08:55:15.443Z,-1.80
2018-12-26T08:57:45.651Z,-1.80
2018-12-26T09:00:15.418Z,-1.70
2018-12-26T09:02:45.130Z,-1.60
2018-12-26T09:05:14.929Z,-1.50
2018-12-26T09:07:45.036Z,-1.40
2018-12-26T09:10:15.177Z,-1.30
2018-12-26T09:12:44.966Z,-1.20
2018-12-26T09:15:14.721Z,-1.00
2018-12-26T09:17:44.822Z,-1.00
2018-12-26T09:20:14.652Z,-1.00
2018-12-26T09:22:44.693Z,-1.00
2018-12-26T09:25:14.586Z,-0.90
2018-12-26T09:27:44.549Z,-0.80
2018-12-26T09:30:14.623Z,-0.70
2018-12-26T09:32:44.368Z,-0.50
2018-12-26T09:35:14.410Z,-0.50
2018-12-26T09:37:44.432Z,-0.50
2018-12-26T09:40:14.565Z,-0.50
2018-12-26T09:42:44.398Z,-0.40
2018-12-26T09:45:14.610Z,-0.40
2018-12-26T09:47:44.425Z,-0.40
2018-12-26T09:50:14.307Z,-0.40
2018-12-26T09:52:44.157Z,-0.30
2018-12-26T09:55:13.942Z,-0.30
2018-12-26T09:57:43.731Z,-0.20
2018-12-26T10:00:13.726Z,-0.40
2018-12-26T10:02:43.447Z,-0.40
2018-12-26T10:05:13.257Z,-0.40
2018-12-26T10:07:43.117Z,-0.30
2018-12-26T10:10:13.043Z,-0.30
2018-12-26T10:12:42.787Z,-0.30
2018-12-26T10:15:13.140Z,-0.30
2018-12-26T10:17:42.846Z,-0.30
2018-12-26T10:20:12.668Z,-0.40
2018-12-26T10:22:42.768Z,-0.40
2018-12-26T10:25:12.575Z,-0.40
2018-12-26T10:27:42.374Z,-0.30
2018-12-26T10:30:12.449Z,-0.30
2018-12-26T10:32:42.407Z,-0.10
2018-12-26T10:35:12.314Z,0.00
2018-12-26T10:37:42.122Z,0.10
2018-12-26T10:40:12.458Z,0.30
2018-12-26T10:42:42.259Z,0.30
2018-12-26T10:45:12.270Z,0.30
2018-12-26T10:47:42.266Z,0.40
2018-12-26T10:50:12.095Z,0.50
2018-12-26T10:52:41.824Z,0.50
2018-12-26T10:55:11.685Z,0.50
2018-12-26T10:57:41.620Z,0.50
2018-12-26T11:00:13.339Z,0.60
2018-12-26T11:02:43.262Z,0.70
2018-12-26T11:05:13.057Z,0.80
2018-12-26T11:07:45.504Z,1.10
2018-12-26T11:10:15.391Z,1.30
2018-12-26T11:12:45.093Z,1.60
2018-12-26T11:15:14.957Z,1.90
2018-12-26T11:17:45.294Z,2.20
2018-12-26T11:20:16.658Z,2.30
2018-12-26T11:22:46.613Z,2.60
2018-12-26T11:25:16.383Z,2.70
2018-12-26T11:27:46.151Z,2.90
2018-12-26T11:30:16.075Z,3.00
2018-12-26T11:32:45.778Z,3.00
2018-12-26T11:35:15.660Z,2.90
2018-12-26T11:37:45.830Z,2.80
2018-12-26T11:40:15.669Z,2.90
2018-12-26T11:42:45.539Z,3.20
2018-12-26T11:45:15.551Z,3.30
2018-12-26T11:47:45.270Z,3.20
2018-12-26T11:50:15.494Z,3.40
2018-12-26T11:52:45.216Z,3.70
2018-12-26T11:55:15.023Z,3.70
2018-12-26T11:57:44.733Z,3.90
2018-12-26T12:00:14.589Z,3.90
2018-12-26T12:02:44.519Z,4.10
2018-12-26T12:05:14.367Z,4.20
2018-12-26T12:07:44.082Z,4.30
2018-12-26T12:10:13.914Z,4.30
2018-12-26T12:12:43.705Z,4.40
2018-12-26T12:15:13.593Z,4.40
2018-12-26T12:17:43.481Z,4.50
2018-12-26T12:20:13.566Z,4.70
2018-12-26T12:22:43.618Z,4.70
2018-12-26T12:25:13.610Z,4.90
2018-12-26T12:27:43.915Z,5.00
2018-12-26T12:30:18.884Z,4.90
2018-12-26T12:32:52.159Z,5.20
2018-12-26T12:35:21.954Z,5.70
2018-12-26T12:37:51.860Z,6.20
2018-12-26T12:40:21.735Z,6.40
2018-12-26T12:42:51.835Z,6.80
2018-12-26T12:45:21.951Z,6.80
2018-12-26T12:47:51.963Z,6.90
2018-12-26T12:50:21.802Z,6.90
2018-12-26T12:52:51.505Z,7.30
2018-12-26T12:55:21.227Z,7.50
2018-12-26T12:57:51.227Z,7.70
2018-12-26T13:00:21.096Z,7.50
2018-12-26T13:02:51.190Z,7.70
2018-12-26T13:05:20.932Z,7.60
2018-12-26T13:07:50.958Z,7.30
2018-12-26T13:10:23.758Z,7.70
2018-12-26T13:12:53.613Z,7.70
2018-12-26T13:15:23.351Z,7.70
2018-12-26T13:17:53.582Z,7.70
2018-12-26T13:20:23.717Z,8.10
2018-12-26T13:22:53.438Z,8.60
2018-12-26T13:25:23.413Z,8.30
2018-12-26T13:27:53.486Z,7.70
2018-12-26T13:30:23.651Z,7.60
2018-12-26T13:32:53.691Z,8.00
2018-12-26T13:35:23.389Z,8.00
2018-12-26T13:37:53.146Z,8.00
2018-12-26T13:40:22.853Z,8.30
2018-12-26T13:42:52.728Z,8.60
2018-12-26T13:45:22.526Z,8.70
2018-12-26T13:47:52.297Z,8.60
2018-12-26T13:50:22.071Z,8.80
2018-12-26T13:52:51.970Z,8.90
2018-12-26T13:55:21.753Z,8.60
2018-12-26T13:57:51.515Z,8.40
2018-12-26T14:00:21.537Z,8.40
2018-12-26T14:02:51.653Z,8.10
2018-12-26T14:05:21.817Z,7.60
2018-12-26T14:07:51.783Z,7.10
2018-12-26T14:10:21.979Z,7.00
2018-12-26T14:12:51.702Z,6.90
2018-12-26T14:15:21.398Z,6.80
2018-12-26T14:17:51.430Z,6.80
2018-12-26T14:20:21.323Z,6.70
2018-12-26T14:22:51.184Z,6.30
2018-12-26T14:25:20.891Z,6.10
2018-12-26T14:27:50.657Z,5.80
2018-12-26T14:30:20.407Z,5.40
2018-12-26T14:32:53.289Z,5.20
2018-12-26T14:35:23.072Z,5.00
2018-12-26T14:37:53.688Z,4.90
2018-12-26T14:40:23.526Z,4.70
2018-12-26T14:42:53.337Z,4.50
2018-12-26T14:45:23.201Z,4.40
2018-12-26T14:47:53.119Z,4.30
2018-12-26T14:50:22.970Z,4.00
2018-12-26T14:52:53.292Z,3.80
2018-12-26T14:55:23.237Z,3.50
2018-12-26T14:57:53.051Z,3.30
2018-12-26T15:00:23.197Z,3.20
2018-12-26T15:02:52.993Z,3.10
2018-12-26T15:05:22.682Z,3.00
2018-12-26T15:07:52.683Z,3.00
2018-12-26T15:10:22.469Z,2.90
2018-12-26T15:12:52.187Z,2.80
2018-12-26T15:15:21.886Z,2.70
2018-12-26T15:17:51.617Z,2.70
2018-12-26T15:20:21.312Z,2.60
2018-12-26T15:22:51.564Z,2.50
2018-12-26T15:25:21.304Z,2.50
2018-12-26T15:27:51.305Z,2.40
2018-12-26T15:30:28.418Z,2.20
2018-12-26T15:32:52.598Z,2.20
2018-12-26T15:35:22.378Z,2.10
2018-12-26T15:37:52.121Z,2.10
2018-12-26T15:40:22.480Z,2.10
2018-12-26T15:42:52.457Z,2.00
2018-12-26T15:45:22.178Z,2.00
2018-12-26T15:47:57.778Z,2.00
2018-12-26T15:50:27.819Z,1.90
2018-12-26T15:52:57.529Z,1.80
2018-12-26T15:55:27.307Z,1.80
2018-12-26T15:57:57.491Z,1.70
2018-12-26T16:00:27.197Z,1.70
2018-12-26T16:02:57.218Z,1.60
2018-12-26T16:05:27.266Z,1.60
2018-12-26T16:07:57.058Z,1.50
2018-12-26T16:10:26.782Z,1.50
2018-12-26T16:12:56.504Z,1.50
2018-12-26T16:15:26.548Z,1.40
2018-12-26T16:17:56.279Z,1.30
2018-12-26T16:20:26.174Z,1.30
2018-12-26T16:22:56.332Z,1.20
2018-12-26T16:25:26.026Z,1.20
2018-12-26T16:27:56.126Z,1.10
2018-12-26T16:30:25.941Z,1.10
2018-12-26T16:32:56.023Z,1.20
2018-12-26T16:35:25.928Z,1.20
2018-12-26T16:38:01.475Z,1.10
2018-12-26T16:40:27.798Z,1.10
2018-12-26T16:42:57.644Z,1.00
2018-12-26T16:45:27.482Z,1.00
2018-12-26T16:47:57.335Z,0.90
2018-12-26T16:50:27.456Z,0.80
2018-12-26T16:52:57.679Z,0.80
2018-12-26T16:55:27.545Z,0.80
2018-12-26T16:57:58.646Z,0.70
2018-12-26T17:00:28.638Z,0.80
2018-12-26T17:02:58.870Z,0.70
2018-12-26T17:05:28.756Z,0.60
2018-12-26T17:07:58.920Z,0.60
2018-12-26T17:10:28.958Z,0.60
2018-12-26T17:12:59.191Z,0.50
2018-12-26T17:15:29.102Z,0.50
2018-12-26T17:17:59.479Z,0.40
2018-12-26T17:20:29.340Z,0.40
2018-12-26T17:22:59.571Z,0.40
2018-12-26T17:25:29.635Z,0.40
2018-12-26T17:27:59.525Z,0.40
2018-12-26T17:30:30.144Z,0.40
2018-12-26T17:33:00.746Z,0.40
2018-12-26T17:35:31.438Z,0.30
2018-12-26T17:38:01.405Z,0.30
2018-12-26T17:40:31.327Z,0.30
2018-12-26T17:43:01.058Z,0.30
2018-12-26T17:45:32.334Z,0.30
2018-12-26T17:48:02.689Z,0.30
2018-12-26T17:50:47.193Z,0.40
2018-12-26T17:53:39.682Z,0.40
2018-12-26T17:56:13.778Z,0.30
2018-12-26T17:59:23.290Z,0.30
2018-12-26T18:01:57.989Z,0.20
2018-12-26T18:04:29.310Z,0.20
2018-12-26T18:06:59.411Z,0.20
2018-12-26T18:09:29.579Z,0.20
2018-12-26T18:12:11.165Z,0.20
2018-12-26T18:14:31.331Z,0.10
2018-12-26T18:17:01.215Z,0.10
2018-12-26T18:19:31.375Z,0.10
2018-12-26T18:22:01.326Z,0.00
2018-12-26T18:24:31.450Z,0.10
2018-12-26T18:27:01.712Z,0.00
2018-12-26T18:29:31.925Z,-0.10
2018-12-26T18:32:01.966Z,-0.10
2018-12-26T18:34:32.149Z,-0.10
2018-12-26T18:37:02.041Z,-0.10
2018-12-26T18:39:32.078Z,-0.10
2018-12-26T18:42:01.799Z,-0.10
2018-12-26T18:44:31.650Z,-0.10
2018-12-26T18:47:01.673Z,-0.10
2018-12-26T18:49:31.636Z,0.00
2018-12-26T18:52:01.418Z,-0.10
2018-12-26T18:54:31.146Z,-0.10
2018-12-26T18:57:00.918Z,-0.10
2018-12-26T18:59:30.992Z,-0.20
2018-12-26T19:02:01.342Z,-0.20
2018-12-26T19:04:31.164Z,-0.20
2018-12-26T19:07:00.999Z,-0.20
2018-12-26T19:09:31.299Z,-0.20
2018-12-26T19:12:01.365Z,-0.20
2018-12-26T19:14:31.586Z,-0.20
2018-12-26T19:17:01.930Z,-0.30
2018-12-26T19:19:31.654Z,-0.30
2018-12-26T19:22:01.410Z,-0.30
2018-12-26T19:24:37.723Z,-0.20
2018-12-26T19:27:07.503Z,-0.30
2018-12-26T19:29:37.462Z,-0.10
2018-12-26T19:32:07.306Z,-0.30
2018-12-26T19:34:37.158Z,-0.20
2018-12-26T19:37:06.970Z,-0.30
2018-12-26T19:39:37.057Z,-0.30
2018-12-26T19:42:07.203Z,-0.40
2018-12-26T19:44:36.998Z,-0.40
2018-12-26T19:47:06.742Z,-0.50
2018-12-26T19:49:36.487Z,-0.50
2018-12-26T19:52:06.261Z,-0.50
2018-12-26T19:54:35.982Z,-0.50
2018-12-26T19:57:06.218Z,-0.50
2018-12-26T19:59:36.210Z,-0.50
2018-12-26T20:06:32.319Z,-0.60
2018-12-26T20:09:02.078Z,-0.50
2018-12-26T20:11:32.345Z,-0.60
2018-12-26T20:14:02.107Z,-0.50
2018-12-26T20:16:32.130Z,-0.60
2018-12-26T20:19:02.189Z,-0.50
2018-12-26T20:21:32.046Z,-0.50
2018-12-26T20:24:01.787Z,-0.60
2018-12-26T20:26:31.582Z,-0.60
2018-12-26T20:29:01.511Z,-0.60
2018-12-26T20:31:31.251Z,-0.60
2018-12-26T20:34:01.040Z,-0.60
2018-12-26T20:36:31.034Z,-0.60
2018-12-26T20:39:00.950Z,-0.60
2018-12-26T20:41:30.791Z,-0.70
2018-12-26T20:44:01.021Z,-0.70
2018-12-26T20:46:31.369Z,-0.70
2018-12-26T20:49:01.107Z,-0.70
2018-12-26T20:51:30.883Z,-0.60
2018-12-26T20:54:00.972Z,-0.60
2018-12-26T20:56:31.106Z,-0.60
2018-12-26T20:59:01.418Z,-0.70
2018-12-26T21:01:31.547Z,-0.70
2018-12-26T21:04:01.342Z,-0.70
2018-12-26T21:06:31.434Z,-0.70
2018-12-26T21:09:02.160Z,-0.80
2018-12-26T21:11:31.879Z,-0.80
2018-12-26T21:14:01.705Z,-0.80
2018-12-26T21:16:31.517Z,-0.80
2018-12-26T21:19:01.342Z,-0.90
2018-12-26T21:21:31.780Z,-0.90
2018-12-26T21:24:01.807Z,-0.90
2018-12-26T21:26:31.869Z,-0.90
2018-12-26T21:29:01.917Z,-0.90
2018-12-26T21:31:31.866Z,-0.80
2018-12-26T21:34:03.222Z,-0.80
2018-12-26T21:36:33.234Z,-0.90
2018-12-26T21:39:04.417Z,-1.00
2018-12-26T21:41:34.194Z,-1.00
2018-12-26T21:44:04.358Z,-1.00
2018-12-26T21:46:34.189Z,-1.00
2018-12-26T21:49:04.376Z,-1.00
2018-12-26T21:51:34.456Z,-1.00
2018-12-26T21:54:04.495Z,-1.00
2018-12-26T21:56:34.406Z,-1.00
2018-12-26T21:59:04.278Z,-1.00
2018-12-26T22:01:34.083Z,-1.10
2018-12-26T22:04:03.970Z,-1.10
2018-12-26T22:06:34.304Z,-1.10
2018-12-26T22:09:06.287Z,-1.20
2018-12-26T22:11:36.202Z,-1.20
2018-12-26T22:14:06.335Z,-1.20
2018-12-26T22:16:36.398Z,-1.20
2018-12-26T22:19:06.481Z,-1.10
2018-12-26T22:21:36.562Z,-1.20
2018-12-26T22:24:06.799Z,-1.20
2018-12-26T22:26:43.257Z,-1.10
2018-12-26T22:29:08.275Z,-1.20
2018-12-26T22:31:38.359Z,-1.20
2018-12-26T22:34:08.233Z,-1.20
2018-12-26T22:36:38.090Z,-1.20
2018-12-26T22:39:07.966Z,-1.20
2018-12-26T22:41:37.766Z,-1.30
2018-12-26T22:44:07.864Z,-1.30
2018-12-26T22:46:37.663Z,-1.30
2018-12-26T22:49:08.483Z,-1.30
2018-12-26T22:51:42.020Z,-1.30
2018-12-26T22:54:10.250Z,-1.30
2018-12-26T22:56:40.073Z,-1.40
2018-12-26T22:59:10.224Z,-1.30
2018-12-26T23:01:40.895Z,-1.10
2018-12-26T23:04:10.680Z,-1.10
2018-12-26T23:06:40.675Z,-1.10
2018-12-26T23:09:10.610Z,-1.20
2018-12-26T23:11:40.715Z,-1.10
2018-12-26T23:14:10.866Z,-1.20
2018-12-26T23:16:40.899Z,-1.30
2018-12-26T23:19:10.710Z,-1.30
2018-12-26T23:21:40.782Z,-1.40
2018-12-26T23:24:10.565Z,-1.40
2018-12-26T23:26:40.606Z,-1.30
2018-12-26T23:29:10.401Z,-1.40
2018-12-26T23:31:40.370Z,-1.30
2018-12-26T23:34:10.098Z,-1.40
2018-12-26T23:36:39.964Z,-1.40
2018-12-26T23:39:10.012Z,-1.40
2018-12-26T23:41:39.863Z,-1.40
2018-12-26T23:44:09.847Z,-1.40
2018-12-26T23:46:40.078Z,-1.40
2018-12-26T23:49:09.906Z,-1.40
2018-12-26T23:51:39.693Z,-1.40
2018-12-26T23:54:09.433Z,-1.40
2018-12-26T23:56:39.285Z,-1.50
2018-12-26T23:59:09.929Z,-1.60
